sensor_id;sensor_type;location;lat;lon;timestamp;pressure;altitude;pressure_sealevel;temperature;humidity
54146;BME280;65909;49.422;7.738;2023-05-03T00:02:21;-16276.47;;;-145.25;92.35
54146;BME280;65909;49.422;7.738;2023-05-03T00:04:46;-16276.47;;;-145.25;92.90
54146;BME280;65909;49.422;7.738;2023-05-03T00:07:12;-16276.47;;;-145.25;93.54
54146;BME280;65909;49.422;7.738;2023-05-03T00:09:38;-16276.47;;;-145.25;93.67
54146;BME280;65909;49.422;7.738;2023-05-03T00:12:04;-16276.47;;;-145.25;93.84
54146;BME280;65909;49.422;7.738;2023-05-03T00:14:30;-16276.47;;;-145.25;93.95
54146;BME280;65909;49.422;7.738;2023-05-03T00:16:55;-16276.47;;;-145.25;94.18
54146;BME280;65909;49.422;7.738;2023-05-03T00:19:21;-16276.47;;;-145.25;94.78
54146;BME280;65909;49.422;7.738;2023-05-03T00:21:46;-16276.47;;;-145.25;94.55
54146;BME280;65909;49.422;7.738;2023-05-03T00:24:12;-16276.47;;;-145.25;95.05
54146;BME280;65909;49.422;7.738;2023-05-03T00:26:37;-16276.47;;;-145.25;95.43
54146;BME280;65909;49.422;7.738;2023-05-03T00:29:02;-16276.47;;;-145.25;95.43
54146;BME280;65909;49.422;7.738;2023-05-03T00:31:28;-16276.47;;;-145.25;95.18
54146;BME280;65909;49.422;7.738;2023-05-03T00:33:53;-16276.47;;;-145.25;96.02
54146;BME280;65909;49.422;7.738;2023-05-03T00:36:19;-16276.47;;;-145.25;96.18
54146;BME280;65909;49.422;7.738;2023-05-03T00:38:44;-16276.47;;;-145.25;95.91
54146;BME280;65909;49.422;7.738;2023-05-03T00:41:10;-16276.47;;;-145.25;96.35
54146;BME280;65909;49.422;7.738;2023-05-03T00:43:35;-16276.47;;;-145.25;96.00
54146;BME280;65909;49.422;7.738;2023-05-03T00:46:02;-16276.47;;;-145.25;96.09
54146;BME280;65909;49.422;7.738;2023-05-03T00:48:30;-16276.47;;;-145.25;96.80
54146;BME280;65909;49.422;7.738;2023-05-03T00:50:56;-16276.47;;;-145.25;96.45
54146;BME280;65909;49.422;7.738;2023-05-03T00:53:22;-16276.47;;;-145.25;97.26
54146;BME280;65909;49.422;7.738;2023-05-03T00:55:51;-16276.47;;;-145.25;96.44
54146;BME280;65909;49.422;7.738;2023-05-03T00:58:17;-16276.47;;;-145.25;96.90
54146;BME280;65909;49.422;7.738;2023-05-03T01:00:42;-16276.47;;;-145.25;97.57
54146;BME280;65909;49.422;7.738;2023-05-03T01:03:08;-16276.47;;;-145.25;97.40
54146;BME280;65909;49.422;7.738;2023-05-03T01:05:59;-16276.47;;;-145.25;97.80
54146;BME280;65909;49.422;7.738;2023-05-03T01:08:52;-16276.47;;;-145.25;97.33
54146;BME280;65909;49.422;7.738;2023-05-03T01:11:23;-16276.47;;;-145.25;98.78
54146;BME280;65909;49.422;7.738;2023-05-03T01:16:23;-16276.47;;;-145.25;98.50
54146;BME280;65909;49.422;7.738;2023-05-03T01:18:53;-16276.47;;;-145.25;98.36
54146;BME280;65909;49.422;7.738;2023-05-03T01:21:20;-16276.47;;;-145.25;98.53
54146;BME280;65909;49.422;7.738;2023-05-03T01:23:56;-16276.47;;;-145.25;98.75
54146;BME280;65909;49.422;7.738;2023-05-03T01:26:25;-16276.47;;;-145.25;99.31
54146;BME280;65909;49.422;7.738;2023-05-03T01:28:51;-16276.47;;;-145.25;98.68
54146;BME280;65909;49.422;7.738;2023-05-03T01:31:45;-16276.47;;;-145.25;98.97
54146;BME280;65909;49.422;7.738;2023-05-03T01:36:59;-16276.47;;;-145.25;99.38
54146;BME280;65909;49.422;7.738;2023-05-03T01:39:43;-16276.47;;;-145.25;99.23
54146;BME280;65909;49.422;7.738;2023-05-03T01:42:11;-16276.47;;;-145.25;99.86
54146;BME280;65909;49.422;7.738;2023-05-03T01:44:38;-16276.47;;;-145.25;99.35
54146;BME280;65909;49.422;7.738;2023-05-03T01:47:03;-16276.47;;;-145.25;99.35
54146;BME280;65909;49.422;7.738;2023-05-03T01:49:29;-16276.47;;;-145.25;99.70
54146;BME280;65909;49.422;7.738;2023-05-03T01:51:55;-16276.47;;;-145.25;99.97
54146;BME280;65909;49.422;7.738;2023-05-03T01:54:20;-16276.47;;;-145.25;100.00
54146;BME280;65909;49.422;7.738;2023-05-03T01:56:46;-16276.47;;;-145.25;99.36
54146;BME280;65909;49.422;7.738;2023-05-03T01:59:11;-16276.47;;;-145.25;99.85
54146;BME280;65909;49.422;7.738;2023-05-03T02:01:37;-16276.47;;;-145.25;100.00
54146;BME280;65909;49.422;7.738;2023-05-03T02:04:02;-16276.47;;;-145.25;99.58
54146;BME280;65909;49.422;7.738;2023-05-03T02:06:27;-16276.47;;;-145.25;100.00
54146;BME280;65909;49.422;7.738;2023-05-03T02:08:53;-16276.47;;;-145.25;100.00
54146;BME280;65909;49.422;7.738;2023-05-03T02:11:19;-16276.47;;;-145.25;100.00
54146;BME280;65909;49.422;7.738;2023-05-03T02:13:47;-16276.47;;;-145.25;100.00
54146;BME280;65909;49.422;7.738;2023-05-03T02:16:13;-16276.47;;;-145.25;100.00
54146;BME280;65909;49.422;7.738;2023-05-03T02:18:39;-16276.47;;;-145.25;100.00
54146;BME280;65909;49.422;7.738;2023-05-03T02:21:04;-16276.47;;;-145.25;100.00
54146;BME280;65909;49.422;7.738;2023-05-03T02:23:29;-16276.47;;;-145.25;100.00
54146;BME280;65909;49.422;7.738;2023-05-03T02:25:56;-16276.47;;;-145.25;100.00
54146;BME280;65909;49.422;7.738;2023-05-03T02:28:22;-16276.47;;;-145.25;100.00
54146;BME280;65909;49.422;7.738;2023-05-03T02:30:47;-16276.47;;;-145.25;100.00
54146;BME280;65909;49.422;7.738;2023-05-03T02:33:13;-16276.47;;;-145.25;100.00
54146;BME280;65909;49.422;7.738;2023-05-03T02:35:38;-16276.47;;;-145.25;100.00
54146;BME280;65909;49.422;7.738;2023-05-03T02:38:03;-16276.47;;;-145.25;100.00
54146;BME280;65909;49.422;7.738;2023-05-03T02:40:29;-16276.47;;;-145.25;100.00
54146;BME280;65909;49.422;7.738;2023-05-03T02:42:54;-16276.47;;;-145.25;100.00
54146;BME280;65909;49.422;7.738;2023-05-03T02:45:20;-16276.47;;;-145.25;100.00
54146;BME280;65909;49.422;7.738;2023-05-03T02:47:45;-16276.47;;;-145.25;100.00
54146;BME280;65909;49.422;7.738;2023-05-03T02:50:10;-16276.47;;;-145.25;100.00
54146;BME280;65909;49.422;7.738;2023-05-03T02:52:36;-16276.47;;;-145.25;100.00
54146;BME280;65909;49.422;7.738;2023-05-03T02:55:01;-16276.47;;;-145.25;100.00
54146;BME280;65909;49.422;7.738;2023-05-03T02:57:27;-16276.47;;;-145.25;100.00
54146;BME280;65909;49.422;7.738;2023-05-03T02:59:52;-16276.47;;;-145.25;100.00
54146;BME280;65909;49.422;7.738;2023-05-03T03:02:17;-16276.47;;;-145.25;100.00
54146;BME280;65909;49.422;7.738;2023-05-03T03:04:45;-16276.47;;;-145.25;100.00
54146;BME280;65909;49.422;7.738;2023-05-03T03:07:10;-16276.47;;;-145.25;100.00
54146;BME280;65909;49.422;7.738;2023-05-03T03:09:35;-16276.47;;;-145.25;100.00
54146;BME280;65909;49.422;7.738;2023-05-03T03:12:01;-16276.47;;;-145.25;100.00
54146;BME280;65909;49.422;7.738;2023-05-03T03:14:29;-16276.47;;;-145.25;100.00
54146;BME280;65909;49.422;7.738;2023-05-03T03:16:55;-16276.47;;;-145.25;100.00
54146;BME280;65909;49.422;7.738;2023-05-03T03:19:20;-16276.47;;;-145.25;100.00
54146;BME280;65909;49.422;7.738;2023-05-03T03:21:46;-16276.47;;;-145.25;100.00
54146;BME280;65909;49.422;7.738;2023-05-03T03:24:11;-16276.47;;;-145.25;100.00
54146;BME280;65909;49.422;7.738;2023-05-03T03:26:36;-16276.47;;;-145.25;100.00
54146;BME280;65909;49.422;7.738;2023-05-03T03:29:02;-16276.47;;;-145.25;100.00
54146;BME280;65909;49.422;7.738;2023-05-03T03:31:27;-16276.47;;;-145.25;100.00
54146;BME280;65909;49.422;7.738;2023-05-03T03:33:52;-16276.47;;;-145.25;100.00
54146;BME280;65909;49.422;7.738;2023-05-03T03:36:18;-16276.47;;;-145.25;100.00
54146;BME280;65909;49.422;7.738;2023-05-03T03:38:43;-16276.47;;;-145.25;100.00
54146;BME280;65909;49.422;7.738;2023-05-03T03:41:08;-16276.47;;;-145.25;100.00
54146;BME280;65909;49.422;7.738;2023-05-03T03:43:34;-16276.47;;;-145.25;100.00
54146;BME280;65909;49.422;7.738;2023-05-03T03:45:59;-16276.47;;;-145.25;100.00
54146;BME280;65909;49.422;7.738;2023-05-03T03:48:25;-16276.47;;;-145.25;100.00
54146;BME280;65909;49.422;7.738;2023-05-03T03:50:50;-16276.47;;;-145.25;100.00
54146;BME280;65909;49.422;7.738;2023-05-03T03:53:16;-16276.47;;;-145.25;100.00
54146;BME280;65909;49.422;7.738;2023-05-03T03:55:41;-16276.47;;;-145.25;100.00
54146;BME280;65909;49.422;7.738;2023-05-03T03:58:07;-16276.47;;;-145.25;100.00
54146;BME280;65909;49.422;7.738;2023-05-03T04:00:33;-16276.47;;;-145.25;100.00
54146;BME280;65909;49.422;7.738;2023-05-03T04:03:00;-16276.47;;;-145.25;100.00
54146;BME280;65909;49.422;7.738;2023-05-03T04:05:25;-16276.47;;;-145.25;100.00
54146;BME280;65909;49.422;7.738;2023-05-03T04:07:50;-16276.47;;;-145.25;100.00
54146;BME280;65909;49.422;7.738;2023-05-03T04:10:16;-16276.47;;;-145.25;100.00
54146;BME280;65909;49.422;7.738;2023-05-03T04:12:41;-16276.47;;;-145.25;100.00
54146;BME280;65909;49.422;7.738;2023-05-03T04:15:07;-16276.47;;;-145.25;100.00
54146;BME280;65909;49.422;7.738;2023-05-03T04:17:33;-16276.47;;;-145.25;100.00
54146;BME280;65909;49.422;7.738;2023-05-03T04:20:00;-16276.47;;;-145.25;100.00
54146;BME280;65909;49.422;7.738;2023-05-03T04:22:26;-16276.47;;;-145.25;100.00
54146;BME280;65909;49.422;7.738;2023-05-03T04:24:51;-16276.47;;;-145.25;100.00
54146;BME280;65909;49.422;7.738;2023-05-03T04:27:18;-16276.47;;;-145.25;100.00
54146;BME280;65909;49.422;7.738;2023-05-03T04:29:44;-16276.47;;;-145.25;100.00
54146;BME280;65909;49.422;7.738;2023-05-03T04:32:09;-16276.47;;;-145.25;100.00
54146;BME280;65909;49.422;7.738;2023-05-03T04:34:35;-16276.47;;;-145.25;100.00
54146;BME280;65909;49.422;7.738;2023-05-03T04:37:02;-16276.47;;;-145.25;100.00
54146;BME280;65909;49.422;7.738;2023-05-03T04:39:29;-16276.47;;;-145.25;100.00
54146;BME280;65909;49.422;7.738;2023-05-03T04:41:54;-16276.47;;;-145.25;100.00
54146;BME280;65909;49.422;7.738;2023-05-03T04:44:19;-16276.47;;;-145.25;100.00
54146;BME280;65909;49.422;7.738;2023-05-03T04:46:45;-16276.47;;;-145.25;100.00
54146;BME280;65909;49.422;7.738;2023-05-03T04:49:10;-16276.47;;;-145.25;100.00
54146;BME280;65909;49.422;7.738;2023-05-03T04:51:36;-16276.47;;;-145.25;100.00
54146;BME280;65909;49.422;7.738;2023-05-03T04:54:01;-16276.47;;;-145.25;100.00
54146;BME280;65909;49.422;7.738;2023-05-03T04:56:26;-16276.47;;;-145.25;100.00
54146;BME280;65909;49.422;7.738;2023-05-03T04:58:53;-16276.47;;;-145.25;100.00
54146;BME280;65909;49.422;7.738;2023-05-03T05:01:19;-16276.47;;;-145.25;100.00
54146;BME280;65909;49.422;7.738;2023-05-03T05:03:50;-16276.47;;;-145.25;100.00
54146;BME280;65909;49.422;7.738;2023-05-03T05:06:15;-16276.47;;;-145.25;100.00
54146;BME280;65909;49.422;7.738;2023-05-03T05:08:41;-16276.47;;;-145.25;100.00
54146;BME280;65909;49.422;7.738;2023-05-03T05:11:06;-16276.47;;;-145.25;100.00
54146;BME280;65909;49.422;7.738;2023-05-03T05:13:32;-16276.47;;;-145.25;100.00
54146;BME280;65909;49.422;7.738;2023-05-03T05:15:58;-16276.47;;;-145.25;100.00
54146;BME280;65909;49.422;7.738;2023-05-03T05:18:23;-16276.47;;;-145.25;100.00
54146;BME280;65909;49.422;7.738;2023-05-03T05:20:48;-16276.47;;;-145.25;100.00
54146;BME280;65909;49.422;7.738;2023-05-03T05:23:14;-16276.47;;;-145.25;99.80
54146;BME280;65909;49.422;7.738;2023-05-03T05:25:39;-16276.47;;;-145.25;99.56
54146;BME280;65909;49.422;7.738;2023-05-03T05:28:05;-16276.47;;;-145.25;98.67
54146;BME280;65909;49.422;7.738;2023-05-03T05:30:30;-16276.47;;;-145.25;98.48
54146;BME280;65909;49.422;7.738;2023-05-03T05:32:55;-16276.47;;;-145.25;97.44
54146;BME280;65909;49.422;7.738;2023-05-03T05:35:21;-16276.47;;;-145.25;95.05
54146;BME280;65909;49.422;7.738;2023-05-03T05:37:46;-16276.47;;;-145.25;93.30
54146;BME280;65909;49.422;7.738;2023-05-03T05:40:12;-16276.47;;;-145.25;92.32
54146;BME280;65909;49.422;7.738;2023-05-03T05:42:37;-16276.47;;;-145.25;90.35
54146;BME280;65909;49.422;7.738;2023-05-03T05:45:03;-16276.47;;;-145.25;89.42
54146;BME280;65909;49.422;7.738;2023-05-03T05:47:28;-16276.47;;;-145.25;88.66
54146;BME280;65909;49.422;7.738;2023-05-03T05:49:54;-16276.47;;;-145.25;87.70
54146;BME280;65909;49.422;7.738;2023-05-03T05:52:19;-16276.47;;;-145.25;86.69
54146;BME280;65909;49.422;7.738;2023-05-03T05:54:45;-16276.47;;;-145.25;85.97
54146;BME280;65909;49.422;7.738;2023-05-03T05:57:10;-16276.47;;;-145.25;84.18
54146;BME280;65909;49.422;7.738;2023-05-03T05:59:36;-16276.47;;;-145.25;83.19
54146;BME280;65909;49.422;7.738;2023-05-03T06:02:02;-16276.47;;;-145.25;81.68
54146;BME280;65909;49.422;7.738;2023-05-03T06:04:28;-16276.47;;;-145.25;81.08
54146;BME280;65909;49.422;7.738;2023-05-03T06:06:53;-16276.47;;;-145.25;79.63
54146;BME280;65909;49.422;7.738;2023-05-03T06:09:19;-16276.47;;;-145.25;78.97
54146;BME280;65909;49.422;7.738;2023-05-03T06:11:44;-16276.47;;;-145.25;78.02
54146;BME280;65909;49.422;7.738;2023-05-03T06:14:09;-16276.47;;;-145.25;77.48
54146;BME280;65909;49.422;7.738;2023-05-03T06:16:35;-16276.47;;;-145.25;75.78
54146;BME280;65909;49.422;7.738;2023-05-03T06:19:01;-16275.00;;;-145.25;73.68
54146;BME280;65909;49.422;7.738;2023-05-03T06:21:27;-15523.09;;;-145.25;73.29
54146;BME280;65909;49.422;7.738;2023-05-03T06:23:54;-12263.09;;;-145.25;71.15
54146;BME280;65909;49.422;7.738;2023-05-03T06:26:19;-10506.59;;;-145.25;70.42
54146;BME280;65909;49.422;7.738;2023-05-03T06:28:44;-6237.41;;;-145.25;68.73
54146;BME280;65909;49.422;7.738;2023-05-03T06:31:11;-2718.03;;;-145.25;67.75
54146;BME280;65909;49.422;7.738;2023-05-03T06:33:36;5842.44;;;-145.25;65.62
54146;BME280;65909;49.422;7.738;2023-05-03T06:36:02;15179.81;;;-145.25;63.62
54146;BME280;65909;49.422;7.738;2023-05-03T06:38:28;23526.75;;;-145.25;62.16
54146;BME280;65909;49.422;7.738;2023-05-03T06:40:53;28847.75;;;-145.25;61.40
54146;BME280;65909;49.422;7.738;2023-05-03T06:43:18;31740.91;;;-145.25;61.09
54146;BME280;65909;49.422;7.738;2023-05-03T06:45:45;43332.97;;;-145.25;57.94
54146;BME280;65909;49.422;7.738;2023-05-03T06:48:11;46023.94;;;-145.25;56.44
54146;BME280;65909;49.422;7.738;2023-05-03T06:50:37;46515.41;;;-145.25;55.66
54146;BME280;65909;49.422;7.738;2023-05-03T06:53:03;47289.50;;;-145.25;54.69
54146;BME280;65909;49.422;7.738;2023-05-03T06:55:28;47426.84;;;-145.25;54.24
54146;BME280;65909;49.422;7.738;2023-05-03T06:57:53;47900.56;;;-145.25;53.47
54146;BME280;65909;49.422;7.738;2023-05-03T07:00:19;48276.78;;;-145.25;52.43
54146;BME280;65909;49.422;7.738;2023-05-03T07:02:47;48368.34;;;-145.25;51.93
54146;BME280;65909;49.422;7.738;2023-05-03T07:05:12;48730.69;;;-145.25;50.91
54146;BME280;65909;49.422;7.738;2023-05-03T07:07:38;48625.16;;;-145.25;50.86
54146;BME280;65909;49.422;7.738;2023-05-03T07:10:04;49097.03;;;-145.25;48.46
54146;BME280;65909;49.422;7.738;2023-05-03T07:12:29;49156.75;;;-145.25;47.78
54146;BME280;65909;49.422;7.738;2023-05-03T07:14:56;49041.28;;;-145.25;48.83
54146;BME280;65909;49.422;7.738;2023-05-03T07:17:22;49328.00;;;-145.25;46.83
54146;BME280;65909;49.422;7.738;2023-05-03T07:19:48;49355.88;;;-145.25;46.59
54146;BME280;65909;49.422;7.738;2023-05-03T07:22:14;49405.66;;;-145.25;46.42
54146;BME280;65909;49.422;7.738;2023-05-03T07:24:39;49483.31;;;-145.25;45.94
54146;BME280;65909;49.422;7.738;2023-05-03T07:27:05;49423.59;;;-145.25;46.26
54146;BME280;65909;49.422;7.738;2023-05-03T07:29:30;49549.03;;;-145.25;44.59
54146;BME280;65909;49.422;7.738;2023-05-03T07:31:56;49654.59;;;-145.25;43.55
54146;BME280;65909;49.422;7.738;2023-05-03T07:34:21;49744.19;;;-145.25;42.58
54146;BME280;65909;49.422;7.738;2023-05-03T07:36:49;49698.41;;;-145.25;42.94
54146;BME280;65909;49.422;7.738;2023-05-03T07:39:19;49692.41;;;-145.25;42.91
54146;BME280;65909;49.422;7.738;2023-05-03T07:41:44;49782.03;;;-145.25;41.48
54146;BME280;65909;49.422;7.738;2023-05-03T07:44:10;49837.78;;;-145.25;40.67
54146;BME280;65909;49.422;7.738;2023-05-03T07:46:35;49863.69;;;-145.25;40.07
54146;BME280;65909;49.422;7.738;2023-05-03T07:49:01;49873.66;;;-145.25;39.72
54146;BME280;65909;49.422;7.738;2023-05-03T07:51:28;49889.56;;;-145.25;39.23
54146;BME280;65909;49.422;7.738;2023-05-03T07:53:56;49917.47;;;-145.25;38.73
54146;BME280;65909;49.422;7.738;2023-05-03T07:56:22;49927.41;;;-145.25;38.73
54146;BME280;65909;49.422;7.738;2023-05-03T07:58:47;49967.25;;;-145.25;37.26
54146;BME280;65909;49.422;7.738;2023-05-03T08:01:13;49955.28;;;-145.25;37.38
54146;BME280;65909;49.422;7.738;2023-05-03T08:03:38;49969.25;;;-145.25;37.20
54146;BME280;65909;49.422;7.738;2023-05-03T08:06:03;50017.03;;;-145.25;37.17
54146;BME280;65909;49.422;7.738;2023-05-03T08:08:29;50009.06;;;-145.25;36.41
54146;BME280;65909;49.422;7.738;2023-05-03T08:10:56;49989.16;;;-145.25;36.52
54146;BME280;65909;49.422;7.738;2023-05-03T08:13:21;50017.03;;;-145.25;35.62
54146;BME280;65909;49.422;7.738;2023-05-03T08:15:47;50062.84;;;-145.25;35.68
54146;BME280;65909;49.422;7.738;2023-05-03T08:18:13;50058.84;;;-145.25;35.36
54146;BME280;65909;49.422;7.738;2023-05-03T08:20:38;50048.91;;;-145.25;35.09
54146;BME280;65909;49.422;7.738;2023-05-03T08:23:04;50088.72;;;-145.25;35.29
54146;BME280;65909;49.422;7.738;2023-05-03T08:25:29;50068.81;;;-145.25;35.05
54146;BME280;65909;49.422;7.738;2023-05-03T08:27:54;50048.91;;;-145.25;35.13
54146;BME280;65909;49.422;7.738;2023-05-03T08:30:20;50082.75;;;-145.25;35.36
54146;BME280;65909;49.422;7.738;2023-05-03T08:32:48;50060.84;;;-145.25;34.33
54146;BME280;65909;49.422;7.738;2023-05-03T08:35:13;50082.75;;;-145.25;34.20
54146;BME280;65909;49.422;7.738;2023-05-03T08:37:42;50094.72;;;-145.25;34.30
54146;BME280;65909;49.422;7.738;2023-05-03T08:40:08;50134.53;;;-145.25;34.16
54146;BME280;65909;49.422;7.738;2023-05-03T08:42:45;50130.56;;;-145.25;33.85
54146;BME280;65909;49.422;7.738;2023-05-03T08:45:12;50132.56;;;-145.25;32.54
54146;BME280;65909;49.422;7.738;2023-05-03T08:47:39;50172.38;;;-145.25;32.98
54146;BME280;65909;49.422;7.738;2023-05-03T08:50:07;50158.44;;;-145.25;32.63
54146;BME280;65909;49.422;7.738;2023-05-03T08:52:33;50178.34;;;-145.25;32.32
54146;BME280;65909;49.422;7.738;2023-05-03T08:54:59;50168.41;;;-145.25;32.35
54146;BME280;65909;49.422;7.738;2023-05-03T08:57:26;50180.34;;;-145.25;32.11
54146;BME280;65909;49.422;7.738;2023-05-03T08:59:53;50182.34;;;-145.25;32.43
54146;BME280;65909;49.422;7.738;2023-05-03T09:02:22;50190.31;;;-145.25;31.72
54146;BME280;65909;49.422;7.738;2023-05-03T09:04:48;50214.22;;;-145.25;31.80
54146;BME280;65909;49.422;7.738;2023-05-03T09:07:13;50206.25;;;-145.25;32.55
54146;BME280;65909;49.422;7.738;2023-05-03T09:09:41;50220.19;;;-145.25;32.35
54146;BME280;65909;49.422;7.738;2023-05-03T09:12:10;50200.25;;;-145.25;30.95
54146;BME280;65909;49.422;7.738;2023-05-03T09:14:45;50214.22;;;-145.25;30.46
54146;BME280;65909;49.422;7.738;2023-05-03T09:17:15;50182.34;;;-145.25;31.50
54146;BME280;65909;49.422;7.738;2023-05-03T09:22:17;50224.16;;;-145.25;30.46
54146;BME280;65909;49.422;7.738;2023-05-03T09:24:53;50266.00;;;-145.25;31.02
54146;BME280;65909;49.422;7.738;2023-05-03T09:27:19;50267.97;;;-145.25;30.40
54146;BME280;65909;49.422;7.738;2023-05-03T09:29:46;50196.28;;;-145.25;31.00
54146;BME280;65909;49.422;7.738;2023-05-03T09:32:11;50218.19;;;-145.25;30.96
54146;BME280;65909;49.422;7.738;2023-05-03T09:34:39;50236.13;;;-145.25;31.27
54146;BME280;65909;49.422;7.738;2023-05-03T09:37:05;50222.19;;;-145.25;31.06
54146;BME280;65909;49.422;7.738;2023-05-03T09:39:30;50262.00;;;-145.25;30.58
54146;BME280;65909;49.422;7.738;2023-05-03T09:41:56;50264.00;;;-145.25;30.64
54146;BME280;65909;49.422;7.738;2023-05-03T09:44:39;50264.00;;;-145.25;30.34
54146;BME280;65909;49.422;7.738;2023-05-03T09:47:06;50267.97;;;-145.25;30.96
54146;BME280;65909;49.422;7.738;2023-05-03T09:49:32;50252.06;;;-145.25;30.40
54146;BME280;65909;49.422;7.738;2023-05-03T09:52:00;50240.09;;;-145.25;30.32
54146;BME280;65909;49.422;7.738;2023-05-03T09:54:27;50224.16;;;-145.25;30.97
54146;BME280;65909;49.422;7.738;2023-05-03T09:56:53;50194.28;;;-145.25;30.95
54146;BME280;65909;49.422;7.738;2023-05-03T09:59:19;50188.31;;;-145.25;31.81
54146;BME280;65909;49.422;7.738;2023-05-03T10:01:45;50182.34;;;-145.25;32.23
54146;BME280;65909;49.422;7.738;2023-05-03T10:04:14;50178.34;;;-145.25;33.09
54146;BME280;65909;49.422;7.738;2023-05-03T10:06:44;50162.44;;;-145.25;32.10
54146;BME280;65909;49.422;7.738;2023-05-03T10:09:14;50198.28;;;-145.25;32.59
54146;BME280;65909;49.422;7.738;2023-05-03T10:11:51;50122.59;;;-145.25;32.72
54146;BME280;65909;49.422;7.738;2023-05-03T10:14:16;50152.47;;;-145.25;33.48
54146;BME280;65909;49.422;7.738;2023-05-03T10:16:44;50178.34;;;-145.25;33.49
54146;BME280;65909;49.422;7.738;2023-05-03T10:19:18;50176.38;;;-145.25;33.37
54146;BME280;65909;49.422;7.738;2023-05-03T10:24:16;50132.56;;;-145.25;33.72
54146;BME280;65909;49.422;7.738;2023-05-03T10:26:46;50144.50;;;-145.25;32.95
54146;BME280;65909;49.422;7.738;2023-05-03T10:32:00;50110.63;;;-145.25;34.06
54146;BME280;65909;49.422;7.738;2023-05-03T10:34:33;50140.50;;;-145.25;33.93
54146;BME280;65909;49.422;7.738;2023-05-03T10:37:07;50100.69;;;-145.25;33.97
54146;BME280;65909;49.422;7.738;2023-05-03T10:39:33;50104.66;;;-145.25;33.69
54146;BME280;65909;49.422;7.738;2023-05-03T10:42:03;50132.56;;;-145.25;33.68
54146;BME280;65909;49.422;7.738;2023-05-03T10:44:39;50112.63;;;-145.25;34.11
54146;BME280;65909;49.422;7.738;2023-05-03T10:47:19;50102.69;;;-145.25;33.89
54146;BME280;65909;49.422;7.738;2023-05-03T10:49:46;50072.81;;;-145.25;34.63
54146;BME280;65909;49.422;7.738;2023-05-03T10:55:11;50084.75;;;-145.25;35.41
54146;BME280;65909;49.422;7.738;2023-05-03T10:57:40;50082.75;;;-145.25;34.78
54146;BME280;65909;49.422;7.738;2023-05-03T11:00:12;50104.66;;;-145.25;34.76
54146;BME280;65909;49.422;7.738;2023-05-03T11:03:28;50084.75;;;-145.25;34.26
54146;BME280;65909;49.422;7.738;2023-05-03T11:05:30;50104.66;;;-145.25;34.07
54146;BME280;65909;49.422;7.738;2023-05-03T11:08:13;50092.72;;;-145.25;35.28
54146;BME280;65909;49.422;7.738;2023-05-03T11:10:42;50062.84;;;-145.25;34.83
54146;BME280;65909;49.422;7.738;2023-05-03T11:13:08;50025.00;;;-145.25;34.63
54146;BME280;65909;49.422;7.738;2023-05-03T11:15:33;50072.81;;;-145.25;34.41
54146;BME280;65909;49.422;7.738;2023-05-03T11:17:59;50078.78;;;-145.25;34.35
54146;BME280;65909;49.422;7.738;2023-05-03T11:20:25;50098.69;;;-145.25;34.90
54146;BME280;65909;49.422;7.738;2023-05-03T11:22:51;50064.84;;;-145.25;34.35
54146;BME280;65909;49.422;7.738;2023-05-03T11:25:16;50072.81;;;-145.25;35.30
54146;BME280;65909;49.422;7.738;2023-05-03T11:27:42;50080.78;;;-145.25;35.12
54146;BME280;65909;49.422;7.738;2023-05-03T11:30:08;50052.88;;;-145.25;35.66
54146;BME280;65909;49.422;7.738;2023-05-03T11:32:34;50074.78;;;-145.25;34.54
54146;BME280;65909;49.422;7.738;2023-05-03T11:35:00;50048.91;;;-145.25;35.62
54146;BME280;65909;49.422;7.738;2023-05-03T11:37:30;50048.91;;;-145.25;35.62
54146;BME280;65909;49.422;7.738;2023-05-03T11:39:56;50030.97;;;-145.25;35.27
54146;BME280;65909;49.422;7.738;2023-05-03T11:42:22;50060.84;;;-145.25;35.79
54146;BME280;65909;49.422;7.738;2023-05-03T11:44:49;50056.88;;;-145.25;35.64
54146;BME280;65909;49.422;7.738;2023-05-03T11:47:14;50072.81;;;-145.25;34.79
54146;BME280;65909;49.422;7.738;2023-05-03T11:49:39;50054.88;;;-145.25;35.81
54146;BME280;65909;49.422;7.738;2023-05-03T11:52:05;50074.78;;;-145.25;35.73
54146;BME280;65909;49.422;7.738;2023-05-03T11:54:30;50084.75;;;-145.25;34.54
54146;BME280;65909;49.422;7.738;2023-05-03T11:56:57;50036.94;;;-145.25;35.07
54146;BME280;65909;49.422;7.738;2023-05-03T11:59:38;50032.97;;;-145.25;35.45
54146;BME280;65909;49.422;7.738;2023-05-03T12:02:05;50072.81;;;-145.25;35.40
54146;BME280;65909;49.422;7.738;2023-05-03T12:04:31;50030.97;;;-145.25;35.26
54146;BME280;65909;49.422;7.738;2023-05-03T12:06:56;50001.09;;;-145.25;35.82
54146;BME280;65909;49.422;7.738;2023-05-03T12:09:24;50054.88;;;-145.25;35.75
54146;BME280;65909;49.422;7.738;2023-05-03T12:11:50;50042.94;;;-145.25;35.89
54146;BME280;65909;49.422;7.738;2023-05-03T12:14:15;50017.03;;;-145.25;36.24
54146;BME280;65909;49.422;7.738;2023-05-03T12:16:49;50046.91;;;-145.25;35.02
54146;BME280;65909;49.422;7.738;2023-05-03T12:19:28;50042.94;;;-145.25;36.33
54146;BME280;65909;49.422;7.738;2023-05-03T12:21:53;50046.91;;;-145.25;35.04
54146;BME280;65909;49.422;7.738;2023-05-03T12:24:19;50023.00;;;-145.25;35.52
54146;BME280;65909;49.422;7.738;2023-05-03T12:26:50;50021.03;;;-145.25;36.01
54146;BME280;65909;49.422;7.738;2023-05-03T12:29:15;50040.94;;;-145.25;35.86
54146;BME280;65909;49.422;7.738;2023-05-03T12:31:44;50028.97;;;-145.25;35.78
54146;BME280;65909;49.422;7.738;2023-05-03T12:34:10;50036.94;;;-145.25;35.36
54146;BME280;65909;49.422;7.738;2023-05-03T12:36:36;50030.97;;;-145.25;35.72
54146;BME280;65909;49.422;7.738;2023-05-03T12:39:02;50052.88;;;-145.25;35.01
54146;BME280;65909;49.422;7.738;2023-05-03T12:41:28;50046.91;;;-145.25;35.92
54146;BME280;65909;49.422;7.738;2023-05-03T12:43:59;50078.78;;;-145.25;35.22
54146;BME280;65909;49.422;7.738;2023-05-03T12:46:26;50060.84;;;-145.25;34.78
54146;BME280;65909;49.422;7.738;2023-05-03T12:48:52;50030.97;;;-145.25;35.11